DAUB

Biskra Airport

Biskra, Algeria
TAF DAUB 260500Z 2606/2706 10018KT 6000 FEW030TCU BKN040 TEMPO 2606/2609 20020G35KT 4000 -TSRA FEW023CB BECMG 2609/2611 25015KT TEMPO 2612/2624 FEW023CB
Issued Valid From Valid To
Apr-26 @ 05:00 UTC
(55 minutes ago)
Apr-26 @ 06:00 UTC
(in 5 minutes)
Apr-27 @ 06:00 UTC
(in 24 hours)
Apr-26 @ 06:00 to Apr-26 @ 09:00
TAF DAUB 260500Z 2606/2706 10018KT 6000 FEW030TCU BKN040
Wind Visibility Clouds
100° at 18 knots 6,003 meters
  • Few at 3,000' AGL
  • Broken at 4,000' AGL
Temporary Apr-26 @ 06:00 to Apr-26 @ 09:00
TEMPO 2606/2609 20020G35KT 4000 -TSRA FEW023CB
Wind Visibility Clouds Conditions
200° at 20 knots
 Gusting to 35 knots
4,007 meters
  • Few at 2,300' AGL
  • Light Thunderstorm
  • Light Rain
Becoming Apr-26 @ 09:00 to Apr-27 @ 06:00
BECMG 2609/2611 25015KT
Wind Visibility Clouds
250° at 15 knots 6,003 meters
  • Few at 3,000' AGL
  • Broken at 4,000' AGL
Temporary Apr-26 @ 12:00 to Apr-27 @ 00:00
TEMPO 2612/2624 FEW023CB
Clouds
  • Few at 2,300' AGL
TAF DAUB 260500Z 2606/2706 10018KT 6000 FEW030TCU BKN040 TEMPO 2606/2609 20020G35KT 4000 -TSRA FEW023CB BECMG 2609/2611 25015KT TEMPO 2612/2624 FEW023CB
Issued Apr-26 @ 05:00 UTC
(55 minutes ago)
Valid From Apr-26 @ 06:00 UTC
(in 5 minutes)
Valid To Apr-27 @ 06:00 UTC
(in 24 hours)
Apr-26 @ 06:00 - Apr-26 @ 09:00
Wind Visibility
100° at 18 knots 6,003 meters
Clouds
  • Few at 3,000' AGL
  • Broken at 4,000' AGL
Temporary Apr-26 @ 06:00 - Apr-26 @ 09:00
Wind Visibility
200° at 20 knots
 Gusting to 35 knots
4,007 meters
Clouds
  • Few at 2,300' AGL
Conditions
  • Light Thunderstorm
  • Light Rain
Becoming Apr-26 @ 09:00 - Apr-27 @ 06:00
Wind Visibility
250° at 15 knots 6,003 meters
Clouds
  • Few at 3,000' AGL
  • Broken at 4,000' AGL
Temporary Apr-26 @ 12:00 - Apr-27 @ 00:00
Clouds
  • Few at 2,300' AGL